sensor_id;sensor_type;location;lat;lon;timestamp;P1;durP1;ratioP1;P2;durP2;ratioP2
46507;SDS011;32223;53.654;10.014;2022-07-22T00:00:30;16.00;;;13.65;;
46507;SDS011;32223;53.654;10.014;2022-07-22T00:02:55;14.43;;;12.13;;
46507;SDS011;32223;53.654;10.014;2022-07-22T00:05:21;16.88;;;13.57;;
46507;SDS011;32223;53.654;10.014;2022-07-22T00:07:47;17.90;;;13.55;;
46507;SDS011;32223;53.654;10.014;2022-07-22T00:10:12;19.00;;;13.98;;
46507;SDS011;32223;53.654;10.014;2022-07-22T00:12:38;21.58;;;15.52;;
46507;SDS011;32223;53.654;10.014;2022-07-22T00:15:05;22.33;;;14.85;;
46507;SDS011;32223;53.654;10.014;2022-07-22T00:17:31;27.27;;;16.98;;
46507;SDS011;32223;53.654;10.014;2022-07-22T00:19:57;24.02;;;15.60;;
46507;SDS011;32223;53.654;10.014;2022-07-22T00:22:23;21.38;;;15.45;;
46507;SDS011;32223;53.654;10.014;2022-07-22T00:24:48;24.20;;;15.40;;
46507;SDS011;32223;53.654;10.014;2022-07-22T00:27:14;21.00;;;15.75;;
46507;SDS011;32223;53.654;10.014;2022-07-22T00:29:40;30.35;;;15.35;;
46507;SDS011;32223;53.654;10.014;2022-07-22T00:32:06;22.48;;;14.20;;
46507;SDS011;32223;53.654;10.014;2022-07-22T00:34:32;20.35;;;13.30;;
46507;SDS011;32223;53.654;10.014;2022-07-22T00:36:57;20.70;;;11.65;;
46507;SDS011;32223;53.654;10.014;2022-07-22T00:39:23;15.70;;;11.02;;
46507;SDS011;32223;53.654;10.014;2022-07-22T00:41:49;16.15;;;11.30;;
46507;SDS011;32223;53.654;10.014;2022-07-22T00:44:15;13.50;;;9.10;;
46507;SDS011;32223;53.654;10.014;2022-07-22T00:46:40;20.15;;;9.73;;
46507;SDS011;32223;53.654;10.014;2022-07-22T00:49:06;16.00;;;10.02;;
46507;SDS011;32223;53.654;10.014;2022-07-22T00:51:33;16.13;;;10.07;;
46507;SDS011;32223;53.654;10.014;2022-07-22T00:53:59;12.93;;;8.48;;
46507;SDS011;32223;53.654;10.014;2022-07-22T00:56:26;13.63;;;8.15;;
46507;SDS011;32223;53.654;10.014;2022-07-22T00:58:54;10.82;;;6.65;;
46507;SDS011;32223;53.654;10.014;2022-07-22T01:01:21;8.80;;;5.22;;
46507;SDS011;32223;53.654;10.014;2022-07-22T01:03:47;6.75;;;3.03;;
46507;SDS011;32223;53.654;10.014;2022-07-22T01:06:13;4.07;;;2.70;;
46507;SDS011;32223;53.654;10.014;2022-07-22T01:08:39;4.50;;;2.45;;
46507;SDS011;32223;53.654;10.014;2022-07-22T01:11:12;5.45;;;2.67;;
46507;SDS011;32223;53.654;10.014;2022-07-22T01:13:39;9.25;;;2.53;;
46507;SDS011;32223;53.654;10.014;2022-07-22T01:16:06;3.63;;;1.98;;
46507;SDS011;32223;53.654;10.014;2022-07-22T01:18:34;6.70;;;2.10;;
46507;SDS011;32223;53.654;10.014;2022-07-22T01:21:01;4.57;;;2.08;;
46507;SDS011;32223;53.654;10.014;2022-07-22T01:23:27;2.92;;;1.80;;
46507;SDS011;32223;53.654;10.014;2022-07-22T01:25:53;2.95;;;1.50;;
46507;SDS011;32223;53.654;10.014;2022-07-22T01:28:19;4.45;;;1.92;;
46507;SDS011;32223;53.654;10.014;2022-07-22T01:30:45;4.82;;;1.67;;
46507;SDS011;32223;53.654;10.014;2022-07-22T01:33:10;4.10;;;2.05;;
46507;SDS011;32223;53.654;10.014;2022-07-22T01:35:36;4.57;;;2.00;;
46507;SDS011;32223;53.654;10.014;2022-07-22T01:38:02;6.85;;;2.05;;
46507;SDS011;32223;53.654;10.014;2022-07-22T01:40:27;4.85;;;2.40;;
46507;SDS011;32223;53.654;10.014;2022-07-22T01:42:53;5.88;;;2.17;;
46507;SDS011;32223;53.654;10.014;2022-07-22T01:45:19;6.13;;;1.70;;
46507;SDS011;32223;53.654;10.014;2022-07-22T01:47:44;5.40;;;2.45;;
46507;SDS011;32223;53.654;10.014;2022-07-22T01:50:11;9.30;;;1.90;;
46507;SDS011;32223;53.654;10.014;2022-07-22T01:52:37;5.80;;;2.65;;
46507;SDS011;32223;53.654;10.014;2022-07-22T01:55:05;6.70;;;2.67;;
46507;SDS011;32223;53.654;10.014;2022-07-22T01:57:31;9.93;;;3.35;;
46507;SDS011;32223;53.654;10.014;2022-07-22T01:59:57;8.02;;;4.72;;
46507;SDS011;32223;53.654;10.014;2022-07-22T02:02:23;8.98;;;4.53;;
46507;SDS011;32223;53.654;10.014;2022-07-22T02:04:48;10.65;;;4.43;;
46507;SDS011;32223;53.654;10.014;2022-07-22T02:07:14;11.05;;;4.65;;
46507;SDS011;32223;53.654;10.014;2022-07-22T02:09:39;16.08;;;5.38;;
46507;SDS011;32223;53.654;10.014;2022-07-22T02:12:05;13.63;;;4.85;;
46507;SDS011;32223;53.654;10.014;2022-07-22T02:14:32;12.45;;;6.00;;
46507;SDS011;32223;53.654;10.014;2022-07-22T02:16:57;8.65;;;4.90;;
46507;SDS011;32223;53.654;10.014;2022-07-22T02:19:23;10.05;;;5.47;;
46507;SDS011;32223;53.654;10.014;2022-07-22T02:21:49;11.05;;;4.47;;
46507;SDS011;32223;53.654;10.014;2022-07-22T02:24:14;8.25;;;4.32;;
46507;SDS011;32223;53.654;10.014;2022-07-22T02:26:40;7.32;;;4.95;;
46507;SDS011;32223;53.654;10.014;2022-07-22T02:29:05;12.13;;;4.05;;
46507;SDS011;32223;53.654;10.014;2022-07-22T02:31:31;7.68;;;3.28;;
46507;SDS011;32223;53.654;10.014;2022-07-22T02:33:57;8.40;;;3.47;;
46507;SDS011;32223;53.654;10.014;2022-07-22T02:36:23;9.80;;;4.50;;
46507;SDS011;32223;53.654;10.014;2022-07-22T02:38:49;11.63;;;3.47;;
46507;SDS011;32223;53.654;10.014;2022-07-22T02:41:14;10.00;;;4.05;;
46507;SDS011;32223;53.654;10.014;2022-07-22T02:43:40;10.23;;;2.97;;
46507;SDS011;32223;53.654;10.014;2022-07-22T02:46:06;12.90;;;3.38;;
46507;SDS011;32223;53.654;10.014;2022-07-22T02:48:31;7.93;;;2.78;;
46507;SDS011;32223;53.654;10.014;2022-07-22T02:50:58;9.90;;;3.20;;
46507;SDS011;32223;53.654;10.014;2022-07-22T02:53:23;7.47;;;2.75;;
46507;SDS011;32223;53.654;10.014;2022-07-22T02:55:49;9.20;;;2.75;;
46507;SDS011;32223;53.654;10.014;2022-07-22T02:58:15;7.20;;;3.00;;
46507;SDS011;32223;53.654;10.014;2022-07-22T03:00:40;9.38;;;2.63;;
46507;SDS011;32223;53.654;10.014;2022-07-22T03:03:06;15.98;;;3.17;;
46507;SDS011;32223;53.654;10.014;2022-07-22T03:05:32;8.80;;;2.58;;
46507;SDS011;32223;53.654;10.014;2022-07-22T03:07:58;6.68;;;1.90;;
46507;SDS011;32223;53.654;10.014;2022-07-22T03:10:23;12.13;;;4.13;;
46507;SDS011;32223;53.654;10.014;2022-07-22T03:12:49;16.73;;;2.90;;
46507;SDS011;32223;53.654;10.014;2022-07-22T03:15:14;8.00;;;3.00;;
46507;SDS011;32223;53.654;10.014;2022-07-22T03:17:40;11.63;;;3.20;;
46507;SDS011;32223;53.654;10.014;2022-07-22T03:20:07;7.80;;;3.08;;
46507;SDS011;32223;53.654;10.014;2022-07-22T03:22:34;6.68;;;2.65;;
46507;SDS011;32223;53.654;10.014;2022-07-22T03:25:00;6.63;;;2.50;;
46507;SDS011;32223;53.654;10.014;2022-07-22T03:27:26;8.25;;;3.15;;
46507;SDS011;32223;53.654;10.014;2022-07-22T03:29:52;9.60;;;1.95;;
46507;SDS011;32223;53.654;10.014;2022-07-22T03:32:17;10.20;;;1.95;;
46507;SDS011;32223;53.654;10.014;2022-07-22T03:34:43;10.88;;;3.00;;
46507;SDS011;32223;53.654;10.014;2022-07-22T03:37:09;7.53;;;2.38;;
46507;SDS011;32223;53.654;10.014;2022-07-22T03:39:35;7.82;;;2.42;;
46507;SDS011;32223;53.654;10.014;2022-07-22T03:42:00;9.35;;;2.15;;
46507;SDS011;32223;53.654;10.014;2022-07-22T03:44:26;10.15;;;2.60;;
46507;SDS011;32223;53.654;10.014;2022-07-22T03:46:52;9.40;;;2.95;;
46507;SDS011;32223;53.654;10.014;2022-07-22T03:49:18;6.03;;;1.85;;
46507;SDS011;32223;53.654;10.014;2022-07-22T03:51:44;9.68;;;1.90;;
46507;SDS011;32223;53.654;10.014;2022-07-22T03:54:10;7.65;;;2.75;;
46507;SDS011;32223;53.654;10.014;2022-07-22T03:56:35;8.30;;;2.75;;
46507;SDS011;32223;53.654;10.014;2022-07-22T03:59:01;6.25;;;2.00;;
46507;SDS011;32223;53.654;10.014;2022-07-22T04:01:27;7.85;;;2.30;;
46507;SDS011;32223;53.654;10.014;2022-07-22T04:03:53;9.77;;;2.33;;
46507;SDS011;32223;53.654;10.014;2022-07-22T04:06:19;8.93;;;2.53;;
46507;SDS011;32223;53.654;10.014;2022-07-22T04:08:44;6.72;;;2.67;;
46507;SDS011;32223;53.654;10.014;2022-07-22T04:11:10;5.38;;;2.13;;
46507;SDS011;32223;53.654;10.014;2022-07-22T04:13:35;9.20;;;2.72;;
46507;SDS011;32223;53.654;10.014;2022-07-22T04:16:01;7.32;;;2.20;;
46507;SDS011;32223;53.654;10.014;2022-07-22T04:18:27;6.85;;;2.88;;
46507;SDS011;32223;53.654;10.014;2022-07-22T04:20:55;5.68;;;1.98;;
46507;SDS011;32223;53.654;10.014;2022-07-22T04:23:21;12.25;;;2.88;;
46507;SDS011;32223;53.654;10.014;2022-07-22T04:25:46;6.72;;;2.30;;
46507;SDS011;32223;53.654;10.014;2022-07-22T04:28:12;10.70;;;2.72;;
46507;SDS011;32223;53.654;10.014;2022-07-22T04:30:38;9.95;;;2.30;;
46507;SDS011;32223;53.654;10.014;2022-07-22T04:33:03;7.00;;;2.60;;
46507;SDS011;32223;53.654;10.014;2022-07-22T04:35:29;7.20;;;2.30;;
46507;SDS011;32223;53.654;10.014;2022-07-22T04:37:55;8.05;;;1.92;;
46507;SDS011;32223;53.654;10.014;2022-07-22T04:40:21;11.02;;;6.28;;
46507;SDS011;32223;53.654;10.014;2022-07-22T04:42:46;10.45;;;3.55;;
46507;SDS011;32223;53.654;10.014;2022-07-22T04:45:12;8.55;;;3.72;;
46507;SDS011;32223;53.654;10.014;2022-07-22T04:47:37;11.55;;;3.13;;
46507;SDS011;32223;53.654;10.014;2022-07-22T04:50:03;10.07;;;4.47;;
46507;SDS011;32223;53.654;10.014;2022-07-22T04:52:29;7.05;;;2.20;;
46507;SDS011;32223;53.654;10.014;2022-07-22T04:54:55;9.65;;;2.50;;
46507;SDS011;32223;53.654;10.014;2022-07-22T04:57:23;10.23;;;2.60;;
46507;SDS011;32223;53.654;10.014;2022-07-22T04:59:49;6.45;;;2.50;;
46507;SDS011;32223;53.654;10.014;2022-07-22T05:02:15;9.60;;;3.60;;
46507;SDS011;32223;53.654;10.014;2022-07-22T05:04:40;5.85;;;2.70;;
46507;SDS011;32223;53.654;10.014;2022-07-22T05:07:06;10.07;;;3.60;;
46507;SDS011;32223;53.654;10.014;2022-07-22T05:09:32;4.43;;;2.20;;
46507;SDS011;32223;53.654;10.014;2022-07-22T05:11:57;9.73;;;3.05;;
46507;SDS011;32223;53.654;10.014;2022-07-22T05:14:23;8.13;;;2.35;;
46507;SDS011;32223;53.654;10.014;2022-07-22T05:16:48;14.15;;;3.08;;
46507;SDS011;32223;53.654;10.014;2022-07-22T05:19:14;10.30;;;2.90;;
46507;SDS011;32223;53.654;10.014;2022-07-22T05:21:40;9.13;;;3.22;;
46507;SDS011;32223;53.654;10.014;2022-07-22T05:24:05;13.60;;;3.53;;
46507;SDS011;32223;53.654;10.014;2022-07-22T05:26:32;6.07;;;2.78;;
46507;SDS011;32223;53.654;10.014;2022-07-22T05:28:58;10.00;;;3.13;;
46507;SDS011;32223;53.654;10.014;2022-07-22T05:31:24;7.50;;;3.85;;
46507;SDS011;32223;53.654;10.014;2022-07-22T05:33:49;9.20;;;2.90;;
46507;SDS011;32223;53.654;10.014;2022-07-22T05:36:15;9.80;;;2.63;;
46507;SDS011;32223;53.654;10.014;2022-07-22T05:38:41;13.57;;;3.10;;
46507;SDS011;32223;53.654;10.014;2022-07-22T05:41:06;12.52;;;2.65;;
46507;SDS011;32223;53.654;10.014;2022-07-22T05:43:32;12.13;;;3.70;;
46507;SDS011;32223;53.654;10.014;2022-07-22T05:45:58;12.88;;;3.50;;
46507;SDS011;32223;53.654;10.014;2022-07-22T05:48:24;18.13;;;4.13;;
46507;SDS011;32223;53.654;10.014;2022-07-22T05:50:49;8.80;;;2.55;;
46507;SDS011;32223;53.654;10.014;2022-07-22T05:53:15;8.10;;;3.00;;
46507;SDS011;32223;53.654;10.014;2022-07-22T05:55:41;12.25;;;3.63;;
46507;SDS011;32223;53.654;10.014;2022-07-22T05:58:07;10.93;;;2.63;;
46507;SDS011;32223;53.654;10.014;2022-07-22T06:00:32;9.07;;;2.83;;
46507;SDS011;32223;53.654;10.014;2022-07-22T06:02:58;11.95;;;2.63;;
46507;SDS011;32223;53.654;10.014;2022-07-22T06:05:23;9.13;;;3.30;;
46507;SDS011;32223;53.654;10.014;2022-07-22T06:07:49;11.93;;;3.60;;
46507;SDS011;32223;53.654;10.014;2022-07-22T06:10:15;11.35;;;3.33;;
46507;SDS011;32223;53.654;10.014;2022-07-22T06:12:40;9.88;;;3.00;;
46507;SDS011;32223;53.654;10.014;2022-07-22T06:15:06;8.63;;;3.08;;
46507;SDS011;32223;53.654;10.014;2022-07-22T06:17:32;11.00;;;3.08;;
46507;SDS011;32223;53.654;10.014;2022-07-22T06:19:58;14.23;;;3.08;;
46507;SDS011;32223;53.654;10.014;2022-07-22T06:22:23;9.52;;;3.33;;
46507;SDS011;32223;53.654;10.014;2022-07-22T06:24:49;6.40;;;2.75;;
46507;SDS011;32223;53.654;10.014;2022-07-22T06:27:14;9.35;;;3.15;;
46507;SDS011;32223;53.654;10.014;2022-07-22T06:29:40;7.60;;;3.10;;
46507;SDS011;32223;53.654;10.014;2022-07-22T06:32:06;11.68;;;2.50;;
46507;SDS011;32223;53.654;10.014;2022-07-22T06:34:32;8.55;;;2.30;;
46507;SDS011;32223;53.654;10.014;2022-07-22T06:36:58;9.27;;;2.60;;
46507;SDS011;32223;53.654;10.014;2022-07-22T06:39:24;12.88;;;3.28;;
46507;SDS011;32223;53.654;10.014;2022-07-22T06:41:49;9.85;;;2.70;;
46507;SDS011;32223;53.654;10.014;2022-07-22T06:44:15;8.65;;;3.40;;
46507;SDS011;32223;53.654;10.014;2022-07-22T06:46:41;13.93;;;3.53;;
46507;SDS011;32223;53.654;10.014;2022-07-22T06:49:06;9.07;;;2.83;;
46507;SDS011;32223;53.654;10.014;2022-07-22T06:51:32;9.25;;;2.63;;
46507;SDS011;32223;53.654;10.014;2022-07-22T06:53:58;10.48;;;2.80;;
46507;SDS011;32223;53.654;10.014;2022-07-22T06:56:24;10.07;;;3.15;;
46507;SDS011;32223;53.654;10.014;2022-07-22T06:58:50;10.30;;;2.53;;
46507;SDS011;32223;53.654;10.014;2022-07-22T07:01:16;8.57;;;2.72;;
46507;SDS011;32223;53.654;10.014;2022-07-22T07:03:41;10.18;;;3.25;;
46507;SDS011;32223;53.654;10.014;2022-07-22T07:06:08;8.38;;;2.80;;
46507;SDS011;32223;53.654;10.014;2022-07-22T07:08:36;10.30;;;2.97;;
46507;SDS011;32223;53.654;10.014;2022-07-22T07:11:02;12.50;;;2.90;;
46507;SDS011;32223;53.654;10.014;2022-07-22T07:13:28;10.02;;;3.22;;
46507;SDS011;32223;53.654;10.014;2022-07-22T07:15:54;8.32;;;3.10;;
46507;SDS011;32223;53.654;10.014;2022-07-22T07:18:20;9.48;;;2.72;;
46507;SDS011;32223;53.654;10.014;2022-07-22T07:20:46;9.48;;;3.20;;
46507;SDS011;32223;53.654;10.014;2022-07-22T07:23:12;9.23;;;3.50;;
46507;SDS011;32223;53.654;10.014;2022-07-22T07:25:37;9.35;;;2.60;;
46507;SDS011;32223;53.654;10.014;2022-07-22T07:28:03;8.85;;;2.83;;
46507;SDS011;32223;53.654;10.014;2022-07-22T07:30:29;9.10;;;2.70;;
46507;SDS011;32223;53.654;10.014;2022-07-22T07:32:54;8.18;;;2.28;;
46507;SDS011;32223;53.654;10.014;2022-07-22T07:35:20;10.90;;;3.55;;
46507;SDS011;32223;53.654;10.014;2022-07-22T07:37:46;11.15;;;2.95;;
46507;SDS011;32223;53.654;10.014;2022-07-22T07:40:12;11.95;;;3.15;;
46507;SDS011;32223;53.654;10.014;2022-07-22T07:42:38;8.60;;;3.00;;
46507;SDS011;32223;53.654;10.014;2022-07-22T07:45:04;12.10;;;2.83;;
46507;SDS011;32223;53.654;10.014;2022-07-22T07:47:30;8.18;;;2.53;;
46507;SDS011;32223;53.654;10.014;2022-07-22T07:49:56;20.90;;;2.97;;
46507;SDS011;32223;53.654;10.014;2022-07-22T07:52:23;15.13;;;2.70;;
46507;SDS011;32223;53.654;10.014;2022-07-22T07:54:48;9.27;;;2.72;;
46507;SDS011;32223;53.654;10.014;2022-07-22T07:57:14;8.23;;;2.40;;
46507;SDS011;32223;53.654;10.014;2022-07-22T07:59:40;12.18;;;3.28;;
46507;SDS011;32223;53.654;10.014;2022-07-22T08:02:06;13.57;;;3.20;;
46507;SDS011;32223;53.654;10.014;2022-07-22T08:04:32;9.25;;;2.60;;
46507;SDS011;32223;53.654;10.014;2022-07-22T08:07:00;9.15;;;2.58;;
46507;SDS011;32223;53.654;10.014;2022-07-22T08:09:25;15.25;;;2.45;;
46507;SDS011;32223;53.654;10.014;2022-07-22T08:11:51;9.98;;;2.90;;
46507;SDS011;32223;53.654;10.014;2022-07-22T08:14:17;8.38;;;2.05;;
46507;SDS011;32223;53.654;10.014;2022-07-22T08:16:43;13.48;;;3.00;;
46507;SDS011;32223;53.654;10.014;2022-07-22T08:19:08;13.60;;;3.00;;
46507;SDS011;32223;53.654;10.014;2022-07-22T08:21:34;11.32;;;4.10;;
46507;SDS011;32223;53.654;10.014;2022-07-22T08:24:00;6.22;;;2.97;;
46507;SDS011;32223;53.654;10.014;2022-07-22T08:26:25;11.43;;;2.30;;
46507;SDS011;32223;53.654;10.014;2022-07-22T08:28:51;8.68;;;2.10;;
46507;SDS011;32223;53.654;10.014;2022-07-22T08:31:17;7.97;;;2.20;;
46507;SDS011;32223;53.654;10.014;2022-07-22T08:33:42;10.07;;;3.15;;
46507;SDS011;32223;53.654;10.014;2022-07-22T08:36:08;9.35;;;2.08;;
46507;SDS011;32223;53.654;10.014;2022-07-22T08:38:34;6.40;;;1.65;;
46507;SDS011;32223;53.654;10.014;2022-07-22T08:41:01;7.88;;;2.85;;
46507;SDS011;32223;53.654;10.014;2022-07-22T08:43:28;12.60;;;2.42;;
46507;SDS011;32223;53.654;10.014;2022-07-22T08:45:55;6.43;;;1.98;;
46507;SDS011;32223;53.654;10.014;2022-07-22T08:48:21;8.85;;;1.88;;
46507;SDS011;32223;53.654;10.014;2022-07-22T08:50:48;8.40;;;2.47;;
46507;SDS011;32223;53.654;10.014;2022-07-22T08:53:13;8.98;;;2.08;;
46507;SDS011;32223;53.654;10.014;2022-07-22T08:55:40;8.38;;;2.00;;
46507;SDS011;32223;53.654;10.014;2022-07-22T08:58:10;7.72;;;2.10;;
46507;SDS011;32223;53.654;10.014;2022-07-22T09:00:36;8.80;;;1.85;;
46507;SDS011;32223;53.654;10.014;2022-07-22T09:03:19;13.25;;;2.70;;
46507;SDS011;32223;53.654;10.014;2022-07-22T09:05:47;9.45;;;1.73;;
46507;SDS011;32223;53.654;10.014;2022-07-22T09:08:13;6.20;;;1.77;;
46507;SDS011;32223;53.654;10.014;2022-07-22T09:10:39;10.07;;;2.20;;
46507;SDS011;32223;53.654;10.014;2022-07-22T09:13:06;8.07;;;1.88;;
46507;SDS011;32223;53.654;10.014;2022-07-22T09:15:34;8.13;;;3.15;;
46507;SDS011;32223;53.654;10.014;2022-07-22T09:18:01;11.50;;;3.15;;
46507;SDS011;32223;53.654;10.014;2022-07-22T09:20:28;8.43;;;1.80;;
46507;SDS011;32223;53.654;10.014;2022-07-22T09:22:54;12.82;;;2.72;;
46507;SDS011;32223;53.654;10.014;2022-07-22T09:27:56;10.67;;;2.43;;
46507;SDS011;32223;53.654;10.014;2022-07-22T09:30:35;7.35;;;1.77;;
46507;SDS011;32223;53.654;10.014;2022-07-22T09:33:21;5.55;;;2.08;;
46507;SDS011;32223;53.654;10.014;2022-07-22T09:35:47;8.23;;;2.10;;
46507;SDS011;32223;53.654;10.014;2022-07-22T09:38:15;8.07;;;1.65;;
46507;SDS011;32223;53.654;10.014;2022-07-22T09:40:43;8.30;;;2.25;;
46507;SDS011;32223;53.654;10.014;2022-07-22T09:43:19;6.65;;;1.65;;
46507;SDS011;32223;53.654;10.014;2022-07-22T09:45:49;10.40;;;2.05;;
46507;SDS011;32223;53.654;10.014;2022-07-22T09:48:24;5.55;;;2.08;;
46507;SDS011;32223;53.654;10.014;2022-07-22T09:50:51;4.88;;;1.92;;
46507;SDS011;32223;53.654;10.014;2022-07-22T09:53:19;4.70;;;1.30;;
46507;SDS011;32223;53.654;10.014;2022-07-22T09:55:45;5.70;;;1.42;;
46507;SDS011;32223;53.654;10.014;2022-07-22T09:58:11;7.30;;;2.42;;
46507;SDS011;32223;53.654;10.014;2022-07-22T10:00:39;6.50;;;1.55;;
46507;SDS011;32223;53.654;10.014;2022-07-22T10:03:07;7.88;;;2.10;;
46507;SDS011;32223;53.654;10.014;2022-07-22T10:05:39;6.72;;;2.45;;
46507;SDS011;32223;53.654;10.014;2022-07-22T10:08:07;7.30;;;1.52;;
46507;SDS011;32223;53.654;10.014;2022-07-22T10:10:34;8.40;;;1.80;;
46507;SDS011;32223;53.654;10.014;2022-07-22T10:13:02;6.57;;;1.83;;
46507;SDS011;32223;53.654;10.014;2022-07-22T10:15:30;7.85;;;3.38;;
46507;SDS011;32223;53.654;10.014;2022-07-22T10:17:58;5.88;;;2.00;;
46507;SDS011;32223;53.654;10.014;2022-07-22T10:20:27;7.40;;;1.63;;
46507;SDS011;32223;53.654;10.014;2022-07-22T10:22:55;5.80;;;1.77;;
46507;SDS011;32223;53.654;10.014;2022-07-22T10:25:27;9.30;;;2.10;;
46507;SDS011;32223;53.654;10.014;2022-07-22T10:27:56;14.48;;;2.58;;
46507;SDS011;32223;53.654;10.014;2022-07-22T10:30:24;8.65;;;2.35;;
46507;SDS011;32223;53.654;10.014;2022-07-22T10:35:55;5.93;;;1.70;;
46507;SDS011;32223;53.654;10.014;2022-07-22T10:38:20;6.22;;;1.50;;
46507;SDS011;32223;53.654;10.014;2022-07-22T10:40:47;4.90;;;1.52;;
46507;SDS011;32223;53.654;10.014;2022-07-22T10:43:27;5.65;;;1.77;;
46507;SDS011;32223;53.654;10.014;2022-07-22T10:46:10;8.77;;;1.85;;
46507;SDS011;32223;53.654;10.014;2022-07-22T10:51:11;8.18;;;1.70;;
46507;SDS011;32223;53.654;10.014;2022-07-22T10:58:46;5.03;;;1.15;;
46507;SDS011;32223;53.654;10.014;2022-07-22T11:01:14;4.72;;;1.15;;
46507;SDS011;32223;53.654;10.014;2022-07-22T11:03:42;6.15;;;1.38;;
46507;SDS011;32223;53.654;10.014;2022-07-22T11:06:29;6.90;;;1.27;;
46507;SDS011;32223;53.654;10.014;2022-07-22T11:09:01;4.30;;;1.08;;
46507;SDS011;32223;53.654;10.014;2022-07-22T11:11:34;6.13;;;1.70;;
46507;SDS011;32223;53.654;10.014;2022-07-22T11:14:23;6.13;;;1.63;;
46507;SDS011;32223;53.654;10.014;2022-07-22T11:16:52;5.45;;;1.55;;
46507;SDS011;32223;53.654;10.014;2022-07-22T11:19:23;4.20;;;1.15;;
46507;SDS011;32223;53.654;10.014;2022-07-22T11:21:58;7.47;;;1.90;;
46507;SDS011;32223;53.654;10.014;2022-07-22T11:24:27;5.18;;;1.33;;
46507;SDS011;32223;53.654;10.014;2022-07-22T11:26:54;3.25;;;1.52;;
46507;SDS011;32223;53.654;10.014;2022-07-22T11:31:51;7.60;;;1.10;;
46507;SDS011;32223;53.654;10.014;2022-07-22T11:34:17;5.82;;;1.25;;
46507;SDS011;32223;53.654;10.014;2022-07-22T11:36:44;6.25;;;1.40;;
46507;SDS011;32223;53.654;10.014;2022-07-22T11:39:11;5.07;;;1.20;;
46507;SDS011;32223;53.654;10.014;2022-07-22T11:41:38;4.47;;;1.23;;
46507;SDS011;32223;53.654;10.014;2022-07-22T11:44:04;5.13;;;1.70;;
46507;SDS011;32223;53.654;10.014;2022-07-22T11:49:03;9.23;;;1.48;;
46507;SDS011;32223;53.654;10.014;2022-07-22T11:51:30;6.82;;;2.05;;
46507;SDS011;32223;53.654;10.014;2022-07-22T11:53:57;2.80;;;0.90;;
46507;SDS011;32223;53.654;10.014;2022-07-22T11:56:23;3.72;;;1.10;;
46507;SDS011;32223;53.654;10.014;2022-07-22T11:58:50;3.38;;;1.02;;
46507;SDS011;32223;53.654;10.014;2022-07-22T12:01:19;7.68;;;1.88;;
46507;SDS011;32223;53.654;10.014;2022-07-22T12:03:54;4.55;;;1.40;;
46507;SDS011;32223;53.654;10.014;2022-07-22T12:06:22;3.38;;;0.88;;
46507;SDS011;32223;53.654;10.014;2022-07-22T12:08:52;3.92;;;1.13;;
46507;SDS011;32223;53.654;10.014;2022-07-22T12:11:21;6.68;;;1.75;;
46507;SDS011;32223;53.654;10.014;2022-07-22T12:13:49;4.82;;;1.40;;
46507;SDS011;32223;53.654;10.014;2022-07-22T12:16:20;4.35;;;1.35;;
46507;SDS011;32223;53.654;10.014;2022-07-22T12:19:00;5.53;;;0.88;;
46507;SDS011;32223;53.654;10.014;2022-07-22T12:21:29;4.57;;;1.20;;
46507;SDS011;32223;53.654;10.014;2022-07-22T12:24:05;4.82;;;1.60;;
46507;SDS011;32223;53.654;10.014;2022-07-22T12:31:51;3.22;;;1.10;;
46507;SDS011;32223;53.654;10.014;2022-07-22T12:37:19;3.38;;;0.90;;
46507;SDS011;32223;53.654;10.014;2022-07-22T12:42:34;4.47;;;1.00;;
46507;SDS011;32223;53.654;10.014;2022-07-22T12:45:04;2.10;;;1.15;;
46507;SDS011;32223;53.654;10.014;2022-07-22T12:55:55;4.00;;;1.77;;
46507;SDS011;32223;53.654;10.014;2022-07-22T12:58:27;2.50;;;0.82;;
46507;SDS011;32223;53.654;10.014;2022-07-22T13:01:00;7.72;;;1.52;;
46507;SDS011;32223;53.654;10.014;2022-07-22T13:03:26;2.90;;;0.73;;
46507;SDS011;32223;53.654;10.014;2022-07-22T13:05:54;3.17;;;0.93;;
46507;SDS011;32223;53.654;10.014;2022-07-22T13:08:21;6.32;;;1.35;;
46507;SDS011;32223;53.654;10.014;2022-07-22T13:10:51;6.05;;;1.20;;
46507;SDS011;32223;53.654;10.014;2022-07-22T13:13:17;2.60;;;0.75;;
46507;SDS011;32223;53.654;10.014;2022-07-22T13:15:43;7.22;;;1.60;;
46507;SDS011;32223;53.654;10.014;2022-07-22T13:18:10;3.92;;;0.98;;
46507;SDS011;32223;53.654;10.014;2022-07-22T13:20:36;5.22;;;1.17;;
46507;SDS011;32223;53.654;10.014;2022-07-22T13:23:01;2.28;;;0.93;;
46507;SDS011;32223;53.654;10.014;2022-07-22T13:25:27;5.35;;;1.13;;
46507;SDS011;32223;53.654;10.014;2022-07-22T13:27:53;3.80;;;1.50;;
46507;SDS011;32223;53.654;10.014;2022-07-22T13:30:19;3.30;;;0.90;;
46507;SDS011;32223;53.654;10.014;2022-07-22T13:32:45;7.05;;;1.40;;
46507;SDS011;32223;53.654;10.014;2022-07-22T13:35:11;5.80;;;1.33;;
46507;SDS011;32223;53.654;10.014;2022-07-22T13:37:36;2.92;;;1.20;;
46507;SDS011;32223;53.654;10.014;2022-07-22T13:40:02;2.35;;;0.70;;
46507;SDS011;32223;53.654;10.014;2022-07-22T13:42:29;5.57;;;1.65;;
46507;SDS011;32223;53.654;10.014;2022-07-22T13:44:54;4.82;;;1.67;;
46507;SDS011;32223;53.654;10.014;2022-07-22T13:47:20;4.05;;;1.10;;
46507;SDS011;32223;53.654;10.014;2022-07-22T13:49:46;4.68;;;0.70;;
46507;SDS011;32223;53.654;10.014;2022-07-22T13:52:12;3.35;;;1.90;;
46507;SDS011;32223;53.654;10.014;2022-07-22T13:54:38;6.15;;;1.30;;
46507;SDS011;32223;53.654;10.014;2022-07-22T13:57:04;4.38;;;1.23;;
46507;SDS011;32223;53.654;10.014;2022-07-22T13:59:30;4.30;;;1.55;;
46507;SDS011;32223;53.654;10.014;2022-07-22T14:01:57;3.45;;;1.27;;
46507;SDS011;32223;53.654;10.014;2022-07-22T14:04:23;3.45;;;1.42;;
46507;SDS011;32223;53.654;10.014;2022-07-22T14:06:50;2.85;;;0.77;;
46507;SDS011;32223;53.654;10.014;2022-07-22T14:09:15;6.60;;;1.85;;
46507;SDS011;32223;53.654;10.014;2022-07-22T14:11:42;3.53;;;1.10;;
46507;SDS011;32223;53.654;10.014;2022-07-22T14:14:07;4.65;;;1.75;;
46507;SDS011;32223;53.654;10.014;2022-07-22T14:16:34;4.78;;;1.20;;
46507;SDS011;32223;53.654;10.014;2022-07-22T14:19:00;5.82;;;1.05;;
46507;SDS011;32223;53.654;10.014;2022-07-22T14:21:32;5.95;;;1.15;;
46507;SDS011;32223;53.654;10.014;2022-07-22T14:23:58;5.93;;;1.27;;
46507;SDS011;32223;53.654;10.014;2022-07-22T14:26:24;2.88;;;1.02;;
46507;SDS011;32223;53.654;10.014;2022-07-22T14:28:50;3.08;;;1.65;;
46507;SDS011;32223;53.654;10.014;2022-07-22T14:31:16;7.05;;;1.48;;
46507;SDS011;32223;53.654;10.014;2022-07-22T14:33:41;3.30;;;1.10;;
46507;SDS011;32223;53.654;10.014;2022-07-22T14:36:07;3.67;;;0.90;;
46507;SDS011;32223;53.654;10.014;2022-07-22T14:38:33;6.07;;;1.23;;
46507;SDS011;32223;53.654;10.014;2022-07-22T14:40:58;4.20;;;1.63;;
46507;SDS011;32223;53.654;10.014;2022-07-22T14:43:24;4.03;;;1.08;;
46507;SDS011;32223;53.654;10.014;2022-07-22T14:45:51;6.50;;;1.55;;
46507;SDS011;32223;53.654;10.014;2022-07-22T14:48:17;2.80;;;1.50;;
46507;SDS011;32223;53.654;10.014;2022-07-22T14:50:43;4.00;;;1.20;;
46507;SDS011;32223;53.654;10.014;2022-07-22T14:53:09;4.28;;;1.10;;
46507;SDS011;32223;53.654;10.014;2022-07-22T14:55:34;5.00;;;1.10;;
46507;SDS011;32223;53.654;10.014;2022-07-22T14:58:00;5.20;;;1.20;;
46507;SDS011;32223;53.654;10.014;2022-07-22T15:00:26;7.30;;;1.20;;
46507;SDS011;32223;53.654;10.014;2022-07-22T15:02:51;3.90;;;1.00;;
46507;SDS011;32223;53.654;10.014;2022-07-22T15:05:17;3.65;;;1.10;;